sensor_id;sensor_type;location;lat;lon;timestamp;pressure;altitude;pressure_sealevel;temperature
70050;BMP180;57391;51.306;22.680;2023-02-28T00:01:32;100953.80;;;0.06
70050;BMP180;57391;51.306;22.680;2023-02-28T00:04:00;100952.20;;;0.00
70050;BMP180;57391;51.306;22.680;2023-02-28T00:06:28;100954.80;;;-0.04
70050;BMP180;57391;51.306;22.680;2023-02-28T00:08:55;100954.60;;;-0.10
70050;BMP180;57391;51.306;22.680;2023-02-28T00:11:23;100956.20;;;-0.10
70050;BMP180;57391;51.306;22.680;2023-02-28T00:13:50;100956.20;;;-0.20
70050;BMP180;57391;51.306;22.680;2023-02-28T00:16:22;100955.00;;;-0.20
70050;BMP180;57391;51.306;22.680;2023-02-28T00:18:49;100958.60;;;-0.20
70050;BMP180;57391;51.306;22.680;2023-02-28T00:21:18;100954.60;;;-0.20
70050;BMP180;57391;51.306;22.680;2023-02-28T00:23:46;100962.20;;;-0.20
70050;BMP180;57391;51.306;22.680;2023-02-28T00:26:14;100957.60;;;-0.22
70050;BMP180;57391;51.306;22.680;2023-02-28T00:28:41;100956.60;;;-0.26
70050;BMP180;57391;51.306;22.680;2023-02-28T00:31:08;100952.00;;;-0.30
70050;BMP180;57391;51.306;22.680;2023-02-28T00:33:35;100953.80;;;-0.30
70050;BMP180;57391;51.306;22.680;2023-02-28T00:36:07;100952.20;;;-0.30
70050;BMP180;57391;51.306;22.680;2023-02-28T00:38:38;100950.00;;;-0.40
70050;BMP180;57391;51.306;22.680;2023-02-28T00:41:05;100946.80;;;-0.48
70050;BMP180;57391;51.306;22.680;2023-02-28T00:43:38;100950.20;;;-0.50
70050;BMP180;57391;51.306;22.680;2023-02-28T00:46:06;100952.00;;;-0.50
70050;BMP180;57391;51.306;22.680;2023-02-28T00:48:33;100947.20;;;-0.50
70050;BMP180;57391;51.306;22.680;2023-02-28T00:51:01;100947.80;;;-0.60
70050;BMP180;57391;51.306;22.680;2023-02-28T00:53:29;100947.80;;;-0.60
70050;BMP180;57391;51.306;22.680;2023-02-28T00:55:58;100953.40;;;-0.60
70050;BMP180;57391;51.306;22.680;2023-02-28T00:58:27;100949.80;;;-0.60
70050;BMP180;57391;51.306;22.680;2023-02-28T01:00:54;100951.80;;;-0.60
70050;BMP180;57391;51.306;22.680;2023-02-28T01:03:22;100951.80;;;-0.60
70050;BMP180;57391;51.306;22.680;2023-02-28T01:05:50;100956.40;;;-0.60
70050;BMP180;57391;51.306;22.680;2023-02-28T01:08:17;100959.40;;;-0.60
70050;BMP180;57391;51.306;22.680;2023-02-28T01:10:45;100960.80;;;-0.60
70050;BMP180;57391;51.306;22.680;2023-02-28T01:13:13;100957.20;;;-0.60
70050;BMP180;57391;51.306;22.680;2023-02-28T01:15:49;100952.80;;;-0.60
70050;BMP180;57391;51.306;22.680;2023-02-28T01:18:18;100954.40;;;-0.60
70050;BMP180;57391;51.306;22.680;2023-02-28T01:20:45;100957.40;;;-0.60
70050;BMP180;57391;51.306;22.680;2023-02-28T01:23:13;100956.60;;;-0.64
70050;BMP180;57391;51.306;22.680;2023-02-28T01:25:40;100952.60;;;-0.68
70050;BMP180;57391;51.306;22.680;2023-02-28T01:28:07;100949.40;;;-0.62
70050;BMP180;57391;51.306;22.680;2023-02-28T01:30:35;100954.40;;;-0.70
70050;BMP180;57391;51.306;22.680;2023-02-28T01:33:02;100951.20;;;-0.70
70050;BMP180;57391;51.306;22.680;2023-02-28T01:35:33;100955.20;;;-0.80
70050;BMP180;57391;51.306;22.680;2023-02-28T01:38:02;100950.00;;;-0.80
70050;BMP180;57391;51.306;22.680;2023-02-28T01:40:29;100942.60;;;-0.80
70050;BMP180;57391;51.306;22.680;2023-02-28T01:42:56;100950.00;;;-0.80
70050;BMP180;57391;51.306;22.680;2023-02-28T01:45:29;100947.40;;;-0.80
70050;BMP180;57391;51.306;22.680;2023-02-28T01:48:04;100951.40;;;-0.84
70050;BMP180;57391;51.306;22.680;2023-02-28T01:50:39;100948.40;;;-0.90
70050;BMP180;57391;51.306;22.680;2023-02-28T01:53:18;100945.80;;;-0.90
70050;BMP180;57391;51.306;22.680;2023-02-28T01:55:50;100945.60;;;-0.96
70050;BMP180;57391;51.306;22.680;2023-02-28T01:58:21;100943.00;;;-1.00
70050;BMP180;57391;51.306;22.680;2023-02-28T02:00:49;100948.80;;;-1.00
70050;BMP180;57391;51.306;22.680;2023-02-28T02:03:19;100951.20;;;-1.00
70050;BMP180;57391;51.306;22.680;2023-02-28T02:05:47;100946.00;;;-1.06
70050;BMP180;57391;51.306;22.680;2023-02-28T02:08:22;100946.80;;;-1.10
70050;BMP180;57391;51.306;22.680;2023-02-28T02:10:55;100951.20;;;-1.10
70050;BMP180;57391;51.306;22.680;2023-02-28T02:14:37;100954.40;;;-1.10
70050;BMP180;57391;51.306;22.680;2023-02-28T02:20:15;100962.80;;;-1.20
70050;BMP180;57391;51.306;22.680;2023-02-28T02:40:33;100982.00;;;-1.34
70050;BMP180;57391;51.306;22.680;2023-02-28T02:43:01;100981.40;;;-1.40
70050;BMP180;57391;51.306;22.680;2023-02-28T02:48:13;100985.20;;;-1.40
70050;BMP180;57391;51.306;22.680;2023-02-28T02:51:06;100982.20;;;-1.40
70050;BMP180;57391;51.306;22.680;2023-02-28T02:53:55;100985.40;;;-1.42
70050;BMP180;57391;51.306;22.680;2023-02-28T02:56:29;100988.40;;;-1.50
70050;BMP180;57391;51.306;22.680;2023-02-28T02:59:03;100987.40;;;-1.50
70050;BMP180;57391;51.306;22.680;2023-02-28T03:01:33;100982.00;;;-1.54
70050;BMP180;57391;51.306;22.680;2023-02-28T03:04:18;100980.80;;;-1.54
70050;BMP180;57391;51.306;22.680;2023-02-28T03:06:48;100983.00;;;-1.60
70050;BMP180;57391;51.306;22.680;2023-02-28T03:09:24;100976.60;;;-1.62
70050;BMP180;57391;51.306;22.680;2023-02-28T03:11:55;100979.60;;;-1.70
70050;BMP180;57391;51.306;22.680;2023-02-28T03:18:08;100978.80;;;-1.80
70050;BMP180;57391;51.306;22.680;2023-02-28T03:21:00;100975.60;;;-1.88
70050;BMP180;57391;51.306;22.680;2023-02-28T03:23:42;100974.80;;;-1.90
70050;BMP180;57391;51.306;22.680;2023-02-28T03:26:21;100980.60;;;-1.92
70050;BMP180;57391;51.306;22.680;2023-02-28T03:31:34;100982.80;;;-2.00
70050;BMP180;57391;51.306;22.680;2023-02-28T03:34:13;100986.00;;;-2.00
70050;BMP180;57391;51.306;22.680;2023-02-28T03:36:47;100987.40;;;-2.02
70050;BMP180;57391;51.306;22.680;2023-02-28T03:39:28;100992.40;;;-2.00
70050;BMP180;57391;51.306;22.680;2023-02-28T03:42:12;100989.20;;;-2.00
70050;BMP180;57391;51.306;22.680;2023-02-28T03:44:57;100990.80;;;-2.10
70050;BMP180;57391;51.306;22.680;2023-02-28T03:47:32;100993.60;;;-2.10
70050;BMP180;57391;51.306;22.680;2023-02-28T03:50:12;101000.40;;;-2.10
70050;BMP180;57391;51.306;22.680;2023-02-28T03:52:53;100996.60;;;-2.10
70050;BMP180;57391;51.306;22.680;2023-02-28T03:55:37;101003.80;;;-2.06
70050;BMP180;57391;51.306;22.680;2023-02-28T04:00:52;101001.40;;;-2.10
70050;BMP180;57391;51.306;22.680;2023-02-28T04:03:22;100996.20;;;-2.12
70050;BMP180;57391;51.306;22.680;2023-02-28T04:05:55;100999.80;;;-2.18
70050;BMP180;57391;51.306;22.680;2023-02-28T04:08:24;100995.80;;;-2.18
70050;BMP180;57391;51.306;22.680;2023-02-28T04:13:49;100999.00;;;-2.20
70050;BMP180;57391;51.306;22.680;2023-02-28T04:16:17;101005.20;;;-2.20
70050;BMP180;57391;51.306;22.680;2023-02-28T04:18:44;101001.00;;;-2.20
70050;BMP180;57391;51.306;22.680;2023-02-28T04:21:12;101001.00;;;-2.12
70050;BMP180;57391;51.306;22.680;2023-02-28T04:23:39;101004.80;;;-2.10
70050;BMP180;57391;51.306;22.680;2023-02-28T04:26:06;101005.40;;;-2.10
70050;BMP180;57391;51.306;22.680;2023-02-28T04:28:34;101003.40;;;-2.10
70050;BMP180;57391;51.306;22.680;2023-02-28T04:31:04;101009.60;;;-2.10
70050;BMP180;57391;51.306;22.680;2023-02-28T04:33:32;101004.00;;;-2.16
70050;BMP180;57391;51.306;22.680;2023-02-28T04:36:07;101007.20;;;-2.18
70050;BMP180;57391;51.306;22.680;2023-02-28T04:38:38;101007.00;;;-2.20
70050;BMP180;57391;51.306;22.680;2023-02-28T04:41:06;101007.00;;;-2.16
70050;BMP180;57391;51.306;22.680;2023-02-28T04:43:33;101010.80;;;-2.10
70050;BMP180;57391;51.306;22.680;2023-02-28T04:46:03;101010.00;;;-2.10
70050;BMP180;57391;51.306;22.680;2023-02-28T04:48:36;101013.40;;;-2.10
70050;BMP180;57391;51.306;22.680;2023-02-28T04:51:10;101013.60;;;-2.10
70050;BMP180;57391;51.306;22.680;2023-02-28T04:53:39;101010.60;;;-2.04
70050;BMP180;57391;51.306;22.680;2023-02-28T04:56:10;101012.60;;;-2.00
70050;BMP180;57391;51.306;22.680;2023-02-28T04:58:38;101017.40;;;-2.00
70050;BMP180;57391;51.306;22.680;2023-02-28T05:01:19;101013.80;;;-2.00
70050;BMP180;57391;51.306;22.680;2023-02-28T05:03:47;101018.20;;;-2.00
70050;BMP180;57391;51.306;22.680;2023-02-28T05:06:15;101019.80;;;-2.00
70050;BMP180;57391;51.306;22.680;2023-02-28T05:08:42;101018.00;;;-2.00
70050;BMP180;57391;51.306;22.680;2023-02-28T05:11:31;101015.20;;;-2.00
70050;BMP180;57391;51.306;22.680;2023-02-28T05:14:03;101014.40;;;-2.00
70050;BMP180;57391;51.306;22.680;2023-02-28T05:16:32;101020.40;;;-2.00
70050;BMP180;57391;51.306;22.680;2023-02-28T05:18:59;101022.00;;;-2.00
70050;BMP180;57391;51.306;22.680;2023-02-28T05:21:39;101028.80;;;-1.98
70050;BMP180;57391;51.306;22.680;2023-02-28T05:24:11;101024.20;;;-1.90
70050;BMP180;57391;51.306;22.680;2023-02-28T05:26:43;101027.00;;;-1.90
70050;BMP180;57391;51.306;22.680;2023-02-28T05:29:10;101028.80;;;-1.90
70050;BMP180;57391;51.306;22.680;2023-02-28T05:31:37;101030.40;;;-1.90
70050;BMP180;57391;51.306;22.680;2023-02-28T05:34:05;101035.80;;;-1.90
70050;BMP180;57391;51.306;22.680;2023-02-28T05:36:33;101036.80;;;-1.90
70050;BMP180;57391;51.306;22.680;2023-02-28T05:39:06;101036.40;;;-1.90
70050;BMP180;57391;51.306;22.680;2023-02-28T05:41:34;101037.20;;;-1.90
70050;BMP180;57391;51.306;22.680;2023-02-28T05:44:01;101043.80;;;-1.90
70050;BMP180;57391;51.306;22.680;2023-02-28T05:46:28;101042.00;;;-1.90
70050;BMP180;57391;51.306;22.680;2023-02-28T05:48:55;101045.60;;;-1.82
70050;BMP180;57391;51.306;22.680;2023-02-28T05:51:24;101044.20;;;-1.80
70050;BMP180;57391;51.306;22.680;2023-02-28T05:53:52;101048.60;;;-1.80
70050;BMP180;57391;51.306;22.680;2023-02-28T05:56:18;101052.80;;;-1.80
70050;BMP180;57391;51.306;22.680;2023-02-28T05:58:46;101050.00;;;-1.74
70050;BMP180;57391;51.306;22.680;2023-02-28T06:01:24;101045.80;;;-1.70
70050;BMP180;57391;51.306;22.680;2023-02-28T06:03:51;101046.40;;;-1.60
70050;BMP180;57391;51.306;22.680;2023-02-28T06:06:18;101046.80;;;-1.50
70050;BMP180;57391;51.306;22.680;2023-02-28T06:08:45;101045.60;;;-1.40
70050;BMP180;57391;51.306;22.680;2023-02-28T06:11:13;101050.00;;;-1.30
70050;BMP180;57391;51.306;22.680;2023-02-28T06:13:40;101050.00;;;-1.00
70050;BMP180;57391;51.306;22.680;2023-02-28T06:16:11;101051.20;;;-0.64
70050;BMP180;57391;51.306;22.680;2023-02-28T06:18:38;101051.60;;;-0.20
70050;BMP180;57391;51.306;22.680;2023-02-28T06:21:06;101056.80;;;0.38
70050;BMP180;57391;51.306;22.680;2023-02-28T06:23:32;101056.80;;;1.04
70050;BMP180;57391;51.306;22.680;2023-02-28T06:25:59;101056.60;;;1.66
70050;BMP180;57391;51.306;22.680;2023-02-28T06:28:26;101058.80;;;2.06
70050;BMP180;57391;51.306;22.680;2023-02-28T06:30:53;101072.60;;;2.56
70050;BMP180;57391;51.306;22.680;2023-02-28T06:33:20;101077.60;;;3.08
70050;BMP180;57391;51.306;22.680;2023-02-28T06:35:51;101082.40;;;3.40
70050;BMP180;57391;51.306;22.680;2023-02-28T06:38:19;101081.80;;;3.60
70050;BMP180;57391;51.306;22.680;2023-02-28T06:40:54;101086.00;;;3.88
70050;BMP180;57391;51.306;22.680;2023-02-28T06:43:25;101083.00;;;4.20
70050;BMP180;57391;51.306;22.680;2023-02-28T06:46:00;101086.40;;;4.32
70050;BMP180;57391;51.306;22.680;2023-02-28T06:48:27;101086.00;;;4.40
70050;BMP180;57391;51.306;22.680;2023-02-28T06:51:04;101085.80;;;4.32
70050;BMP180;57391;51.306;22.680;2023-02-28T06:53:33;101084.80;;;4.22
70050;BMP180;57391;51.306;22.680;2023-02-28T06:56:05;101084.00;;;4.12
70050;BMP180;57391;51.306;22.680;2023-02-28T06:58:33;101086.00;;;4.00
70050;BMP180;57391;51.306;22.680;2023-02-28T07:01:02;101089.40;;;3.90
70050;BMP180;57391;51.306;22.680;2023-02-28T07:03:30;101090.20;;;4.14
70050;BMP180;57391;51.306;22.680;2023-02-28T07:05:57;101097.00;;;4.68
70050;BMP180;57391;51.306;22.680;2023-02-28T07:08:25;101097.60;;;5.14
70050;BMP180;57391;51.306;22.680;2023-02-28T07:10:56;101094.00;;;5.58
70050;BMP180;57391;51.306;22.680;2023-02-28T07:13:24;101094.80;;;5.98
70050;BMP180;57391;51.306;22.680;2023-02-28T07:16:07;101100.20;;;6.20
70050;BMP180;57391;51.306;22.680;2023-02-28T07:18:36;101100.80;;;5.90
70050;BMP180;57391;51.306;22.680;2023-02-28T07:21:07;101103.20;;;5.46
70050;BMP180;57391;51.306;22.680;2023-02-28T07:23:36;101102.40;;;5.18
70050;BMP180;57391;51.306;22.680;2023-02-28T07:26:06;101102.80;;;4.90
70050;BMP180;57391;51.306;22.680;2023-02-28T07:28:33;101105.20;;;4.70
70050;BMP180;57391;51.306;22.680;2023-02-28T07:31:05;101105.40;;;4.70
70050;BMP180;57391;51.306;22.680;2023-02-28T07:33:33;101106.40;;;4.60
70050;BMP180;57391;51.306;22.680;2023-02-28T07:36:07;101109.20;;;4.68
70050;BMP180;57391;51.306;22.680;2023-02-28T07:38:37;101108.80;;;5.04
70050;BMP180;57391;51.306;22.680;2023-02-28T07:41:04;101107.80;;;5.50
70050;BMP180;57391;51.306;22.680;2023-02-28T07:43:32;101107.60;;;5.90
70050;BMP180;57391;51.306;22.680;2023-02-28T07:46:13;101109.40;;;6.10
70050;BMP180;57391;51.306;22.680;2023-02-28T07:48:44;101105.60;;;6.30
70050;BMP180;57391;51.306;22.680;2023-02-28T07:51:11;101107.20;;;6.40
70050;BMP180;57391;51.306;22.680;2023-02-28T07:53:38;101111.60;;;6.50
70050;BMP180;57391;51.306;22.680;2023-02-28T07:56:06;101106.40;;;6.40
70050;BMP180;57391;51.306;22.680;2023-02-28T07:58:34;101114.40;;;6.50
70050;BMP180;57391;51.306;22.680;2023-02-28T08:01:09;101113.40;;;6.30
70050;BMP180;57391;51.306;22.680;2023-02-28T08:03:38;101114.00;;;6.30
70050;BMP180;57391;51.306;22.680;2023-02-28T08:06:08;101107.40;;;6.40
70050;BMP180;57391;51.306;22.680;2023-02-28T08:08:41;101102.20;;;6.14
70050;BMP180;57391;51.306;22.680;2023-02-28T08:11:08;101097.00;;;6.10
70050;BMP180;57391;51.306;22.680;2023-02-28T08:13:35;101096.80;;;6.40
70050;BMP180;57391;51.306;22.680;2023-02-28T08:16:03;101094.20;;;6.68
70050;BMP180;57391;51.306;22.680;2023-02-28T08:18:30;101094.80;;;6.90
70050;BMP180;57391;51.306;22.680;2023-02-28T08:20:58;101096.20;;;6.80
70050;BMP180;57391;51.306;22.680;2023-02-28T08:23:25;101093.20;;;6.70
70050;BMP180;57391;51.306;22.680;2023-02-28T08:25:55;101091.40;;;6.80
70050;BMP180;57391;51.306;22.680;2023-02-28T08:28:24;101097.60;;;6.94
70050;BMP180;57391;51.306;22.680;2023-02-28T08:30:50;101097.80;;;6.70
70050;BMP180;57391;51.306;22.680;2023-02-28T08:33:17;101104.00;;;6.60
70050;BMP180;57391;51.306;22.680;2023-02-28T08:35:44;101100.60;;;6.68
70050;BMP180;57391;51.306;22.680;2023-02-28T08:38:11;101109.00;;;6.70
70050;BMP180;57391;51.306;22.680;2023-02-28T08:40:39;101107.40;;;6.50
70050;BMP180;57391;51.306;22.680;2023-02-28T08:43:07;101109.60;;;6.50
70050;BMP180;57391;51.306;22.680;2023-02-28T08:45:34;101107.00;;;6.66
70050;BMP180;57391;51.306;22.680;2023-02-28T08:48:01;101104.60;;;6.80
70050;BMP180;57391;51.306;22.680;2023-02-28T08:50:28;101107.20;;;7.10
70050;BMP180;57391;51.306;22.680;2023-02-28T08:52:55;101104.00;;;7.30
70050;BMP180;57391;51.306;22.680;2023-02-28T08:55:22;101104.80;;;7.60
70050;BMP180;57391;51.306;22.680;2023-02-28T08:57:49;101106.40;;;7.80
70050;BMP180;57391;51.306;22.680;2023-02-28T09:00:17;101110.80;;;7.82
70050;BMP180;57391;51.306;22.680;2023-02-28T09:02:44;101104.40;;;7.80
70050;BMP180;57391;51.306;22.680;2023-02-28T09:05:11;101100.00;;;7.80
70050;BMP180;57391;51.306;22.680;2023-02-28T09:07:38;101102.00;;;7.70
70050;BMP180;57391;51.306;22.680;2023-02-28T09:10:05;101098.00;;;7.68
70050;BMP180;57391;51.306;22.680;2023-02-28T09:12:34;101098.40;;;7.30
70050;BMP180;57391;51.306;22.680;2023-02-28T09:15:03;101099.80;;;7.04
70050;BMP180;57391;51.306;22.680;2023-02-28T09:17:30;101103.00;;;7.00
70050;BMP180;57391;51.306;22.680;2023-02-28T09:19:57;101105.20;;;6.80
70050;BMP180;57391;51.306;22.680;2023-02-28T09:22:25;101106.40;;;6.60
70050;BMP180;57391;51.306;22.680;2023-02-28T09:24:51;101111.20;;;6.50
70050;BMP180;57391;51.306;22.680;2023-02-28T09:27:19;101111.60;;;6.40
70050;BMP180;57391;51.306;22.680;2023-02-28T09:29:45;101112.40;;;6.28
70050;BMP180;57391;51.306;22.680;2023-02-28T09:32:13;101113.20;;;6.02
70050;BMP180;57391;51.306;22.680;2023-02-28T09:34:39;101107.20;;;6.00
70050;BMP180;57391;51.306;22.680;2023-02-28T09:37:07;101109.20;;;6.00
70050;BMP180;57391;51.306;22.680;2023-02-28T09:39:33;101114.00;;;6.10
70050;BMP180;57391;51.306;22.680;2023-02-28T09:42:03;101119.00;;;6.10
70050;BMP180;57391;51.306;22.680;2023-02-28T09:44:43;101113.60;;;6.04
70050;BMP180;57391;51.306;22.680;2023-02-28T09:47:38;101107.40;;;6.04
70050;BMP180;57391;51.306;22.680;2023-02-28T09:53:06;101107.80;;;6.10
70050;BMP180;57391;51.306;22.680;2023-02-28T09:55:47;101111.40;;;6.04
70050;BMP180;57391;51.306;22.680;2023-02-28T10:01:21;101119.00;;;5.90
70050;BMP180;57391;51.306;22.680;2023-02-28T10:04:24;101116.60;;;5.80
70050;BMP180;57391;51.306;22.680;2023-02-28T10:06:56;101115.20;;;5.80
70050;BMP180;57391;51.306;22.680;2023-02-28T10:09:32;101115.40;;;5.80
70050;BMP180;57391;51.306;22.680;2023-02-28T10:12:05;101112.60;;;5.90
70050;BMP180;57391;51.306;22.680;2023-02-28T10:14:34;101117.20;;;5.90
70050;BMP180;57391;51.306;22.680;2023-02-28T10:17:09;101114.00;;;5.90
70050;BMP180;57391;51.306;22.680;2023-02-28T10:22:20;101109.60;;;5.90
70050;BMP180;57391;51.306;22.680;2023-02-28T10:24:52;101109.80;;;5.90
70050;BMP180;57391;51.306;22.680;2023-02-28T10:27:23;101105.00;;;5.90
70050;BMP180;57391;51.306;22.680;2023-02-28T10:29:57;101101.00;;;5.90
70050;BMP180;57391;51.306;22.680;2023-02-28T10:32:29;101100.20;;;5.90
70050;BMP180;57391;51.306;22.680;2023-02-28T10:35:13;101093.80;;;5.90
70050;BMP180;57391;51.306;22.680;2023-02-28T10:37:47;101095.00;;;6.00
70050;BMP180;57391;51.306;22.680;2023-02-28T10:46:16;101087.80;;;5.90
70050;BMP180;57391;51.306;22.680;2023-02-28T10:49:06;101084.00;;;5.90
70050;BMP180;57391;51.306;22.680;2023-02-28T10:51:38;101078.40;;;5.90
70050;BMP180;57391;51.306;22.680;2023-02-28T10:54:16;101077.80;;;5.90
70050;BMP180;57391;51.306;22.680;2023-02-28T10:56:43;101074.80;;;6.00
70050;BMP180;57391;51.306;22.680;2023-02-28T10:59:30;101079.40;;;6.00
70050;BMP180;57391;51.306;22.680;2023-02-28T11:01:58;101074.00;;;6.00
70050;BMP180;57391;51.306;22.680;2023-02-28T11:07:06;101068.60;;;6.00
70050;BMP180;57391;51.306;22.680;2023-02-28T11:09:39;101068.20;;;6.02
70050;BMP180;57391;51.306;22.680;2023-02-28T11:14:57;101064.00;;;6.10
70050;BMP180;57391;51.306;22.680;2023-02-28T11:17:30;101066.20;;;6.20
70050;BMP180;57391;51.306;22.680;2023-02-28T11:20:05;101062.00;;;6.16
70050;BMP180;57391;51.306;22.680;2023-02-28T11:22:39;101060.20;;;6.20
70050;BMP180;57391;51.306;22.680;2023-02-28T11:25:28;101052.80;;;6.20
70050;BMP180;57391;51.306;22.680;2023-02-28T11:27:59;101043.80;;;6.10
70050;BMP180;57391;51.306;22.680;2023-02-28T11:30:38;101044.00;;;6.10
70050;BMP180;57391;51.306;22.680;2023-02-28T11:33:55;101041.60;;;6.10
70050;BMP180;57391;51.306;22.680;2023-02-28T11:36:31;101039.00;;;6.10
70050;BMP180;57391;51.306;22.680;2023-02-28T11:39:09;101037.40;;;6.16
70050;BMP180;57391;51.306;22.680;2023-02-28T11:50:21;101035.00;;;6.40
70050;BMP180;57391;51.306;22.680;2023-02-28T11:53:02;101038.20;;;6.50
70050;BMP180;57391;51.306;22.680;2023-02-28T11:56:11;101038.80;;;6.50
70050;BMP180;57391;51.306;22.680;2023-02-28T12:05:05;101025.80;;;6.60
70050;BMP180;57391;51.306;22.680;2023-02-28T12:08:06;101023.60;;;6.64
70050;BMP180;57391;51.306;22.680;2023-02-28T12:11:24;101017.40;;;6.70
70050;BMP180;57391;51.306;22.680;2023-02-28T12:20:02;101013.80;;;6.72
70050;BMP180;57391;51.306;22.680;2023-02-28T12:27:59;101007.80;;;7.10
70050;BMP180;57391;51.306;22.680;2023-02-28T12:30:31;101000.40;;;7.20
70050;BMP180;57391;51.306;22.680;2023-02-28T12:33:14;101002.80;;;7.30
70050;BMP180;57391;51.306;22.680;2023-02-28T12:35:54;100996.80;;;7.30
70050;BMP180;57391;51.306;22.680;2023-02-28T12:38:31;100990.60;;;7.30
70050;BMP180;57391;51.306;22.680;2023-02-28T12:41:49;100994.20;;;7.40
70050;BMP180;57391;51.306;22.680;2023-02-28T12:44:34;100991.00;;;7.40
70050;BMP180;57391;51.306;22.680;2023-02-28T12:47:09;100990.40;;;7.40
70050;BMP180;57391;51.306;22.680;2023-02-28T12:50:07;100987.80;;;7.52
70050;BMP180;57391;51.306;22.680;2023-02-28T13:09:56;100977.00;;;8.14
70050;BMP180;57391;51.306;22.680;2023-02-28T13:12:25;100976.60;;;8.10
70050;BMP180;57391;51.306;22.680;2023-02-28T13:15:25;100973.60;;;8.10
70050;BMP180;57391;51.306;22.680;2023-02-28T13:17:58;100972.40;;;8.02
70050;BMP180;57391;51.306;22.680;2023-02-28T13:20:35;100967.40;;;8.04
70050;BMP180;57391;51.306;22.680;2023-02-28T13:23:03;100966.40;;;8.16
70050;BMP180;57391;51.306;22.680;2023-02-28T13:28:09;100951.80;;;8.10
70050;BMP180;57391;51.306;22.680;2023-02-28T13:36:10;100954.60;;;8.00
70050;BMP180;57391;51.306;22.680;2023-02-28T13:38:46;100956.20;;;7.90
70050;BMP180;57391;51.306;22.680;2023-02-28T14:06:55;100927.00;;;7.40
70050;BMP180;57391;51.306;22.680;2023-02-28T14:09:41;100918.20;;;7.30
70050;BMP180;57391;51.306;22.680;2023-02-28T14:13:10;100915.60;;;7.20
70050;BMP180;57391;51.306;22.680;2023-02-28T14:15:46;100911.20;;;7.02
70050;BMP180;57391;51.306;22.680;2023-02-28T14:18:41;100910.60;;;6.90
70050;BMP180;57391;51.306;22.680;2023-02-28T14:21:22;100911.80;;;6.70
70050;BMP180;57391;51.306;22.680;2023-02-28T14:27:35;100916.00;;;6.50
70050;BMP180;57391;51.306;22.680;2023-02-28T14:36:37;100905.00;;;6.10
70050;BMP180;57391;51.306;22.680;2023-02-28T14:39:20;100899.20;;;6.00
70050;BMP180;57391;51.306;22.680;2023-02-28T14:41:49;100899.20;;;5.90
70050;BMP180;57391;51.306;22.680;2023-02-28T14:44:25;100898.00;;;5.80
70050;BMP180;57391;51.306;22.680;2023-02-28T14:46:56;100898.80;;;5.70
70050;BMP180;57391;51.306;22.680;2023-02-28T14:49:29;100902.00;;;5.60
70050;BMP180;57391;51.306;22.680;2023-02-28T14:54:40;100898.60;;;5.50
70050;BMP180;57391;51.306;22.680;2023-02-28T14:57:31;100895.60;;;5.40
70050;BMP180;57391;51.306;22.680;2023-02-28T15:00:25;100892.80;;;5.32
70050;BMP180;57391;51.306;22.680;2023-02-28T15:02:55;100896.20;;;5.20
70050;BMP180;57391;51.306;22.680;2023-02-28T15:05:32;100889.40;;;5.20
70050;BMP180;57391;51.306;22.680;2023-02-28T15:08:16;100885.60;;;5.20
70050;BMP180;57391;51.306;22.680;2023-02-28T15:10:56;100882.80;;;5.10
70050;BMP180;57391;51.306;22.680;2023-02-28T15:13:38;100874.40;;;5.00
70050;BMP180;57391;51.306;22.680;2023-02-28T15:16:35;100872.00;;;4.90
70050;BMP180;57391;51.306;22.680;2023-02-28T15:19:20;100875.20;;;4.80
70050;BMP180;57391;51.306;22.680;2023-02-28T15:22:06;100872.40;;;4.66
70050;BMP180;57391;51.306;22.680;2023-02-28T15:24:49;100871.00;;;4.50
70050;BMP180;57391;51.306;22.680;2023-02-28T15:27:24;100870.40;;;4.40
70050;BMP180;57391;51.306;22.680;2023-02-28T15:29:59;100873.00;;;4.30
70050;BMP180;57391;51.306;22.680;2023-02-28T15:32:34;100874.60;;;4.20
70050;BMP180;57391;51.306;22.680;2023-02-28T15:35:38;100873.80;;;4.10
70050;BMP180;57391;51.306;22.680;2023-02-28T15:38:26;100874.00;;;4.08
70050;BMP180;57391;51.306;22.680;2023-02-28T15:40:59;100870.00;;;3.96
70050;BMP180;57391;51.306;22.680;2023-02-28T15:43:30;100868.80;;;3.80
70050;BMP180;57391;51.306;22.680;2023-02-28T15:46:11;100863.60;;;3.70
70050;BMP180;57391;51.306;22.680;2023-02-28T15:48:54;100865.40;;;3.60
70050;BMP180;57391;51.306;22.680;2023-02-28T15:51:33;100863.20;;;3.50
70050;BMP180;57391;51.306;22.680;2023-02-28T15:54:18;100860.60;;;3.42
70050;BMP180;57391;51.306;22.680;2023-02-28T15:56:51;100859.80;;;3.32
70050;BMP180;57391;51.306;22.680;2023-02-28T15:59:30;100854.20;;;3.20
70050;BMP180;57391;51.306;22.680;2023-02-28T16:02:17;100857.00;;;3.10
70050;BMP180;57391;51.306;22.680;2023-02-28T16:04:57;100859.40;;;3.00
70050;BMP180;57391;51.306;22.680;2023-02-28T16:07:27;100865.80;;;2.90
70050;BMP180;57391;51.306;22.680;2023-02-28T16:09:54;100867.20;;;2.90
70050;BMP180;57391;51.306;22.680;2023-02-28T16:12:27;100862.40;;;2.80
70050;BMP180;57391;51.306;22.680;2023-02-28T16:15:01;100868.60;;;2.70
70050;BMP180;57391;51.306;22.680;2023-02-28T16:17:35;100873.20;;;2.60
70050;BMP180;57391;51.306;22.680;2023-02-28T16:20:28;100875.60;;;2.56
70050;BMP180;57391;51.306;22.680;2023-02-28T16:22:56;100877.40;;;2.50
70050;BMP180;57391;51.306;22.680;2023-02-28T16:25:35;100881.00;;;2.50
70050;BMP180;57391;51.306;22.680;2023-02-28T16:28:04;100880.40;;;2.40
70050;BMP180;57391;51.306;22.680;2023-02-28T16:30:35;100876.60;;;2.30
70050;BMP180;57391;51.306;22.680;2023-02-28T16:33:02;100873.60;;;2.30
70050;BMP180;57391;51.306;22.680;2023-02-28T16:35:30;100879.40;;;2.20
70050;BMP180;57391;51.306;22.680;2023-02-28T16:37:58;100880.80;;;2.20
70050;BMP180;57391;51.306;22.680;2023-02-28T16:40:26;100885.00;;;2.16
70050;BMP180;57391;51.306;22.680;2023-02-28T16:43:00;100894.60;;;2.10
70050;BMP180;57391;51.306;22.680;2023-02-28T16:45:29;100896.40;;;2.02
70050;BMP180;57391;51.306;22.680;2023-02-28T16:47:56;100895.00;;;2.00
70050;BMP180;57391;51.306;22.680;2023-02-28T16:50:27;100890.60;;;1.90
70050;BMP180;57391;51.306;22.680;2023-02-28T16:52:56;100891.80;;;1.90